sensor_id;sensor_type;location;lat;lon;timestamp;pressure;altitude;pressure_sealevel;temperature;humidity
9187;BME280;7273;48.902;9.410;2023-12-29T00:00:15;98089.81;;;9.94;76.37
9187;BME280;7273;48.902;9.410;2023-12-29T00:02:41;98074.97;;;9.91;76.50
9187;BME280;7273;48.902;9.410;2023-12-29T00:05:06;98093.06;;;9.91;76.46
9187;BME280;7273;48.902;9.410;2023-12-29T00:07:32;98082.25;;;9.91;76.35
9187;BME280;7273;48.902;9.410;2023-12-29T00:09:57;98074.41;;;9.89;76.41
9187;BME280;7273;48.902;9.410;2023-12-29T00:12:23;98075.25;;;9.90;76.25
9187;BME280;7273;48.902;9.410;2023-12-29T00:14:48;98080.09;;;9.88;76.33
9187;BME280;7273;48.902;9.410;2023-12-29T00:17:14;98072.00;;;9.88;76.27
9187;BME280;7273;48.902;9.410;2023-12-29T00:19:39;98075.25;;;9.90;76.14
9187;BME280;7273;48.902;9.410;2023-12-29T00:22:04;98075.25;;;9.90;76.16
9187;BME280;7273;48.902;9.410;2023-12-29T00:24:30;98069.56;;;9.91;75.78
9187;BME280;7273;48.902;9.410;2023-12-29T00:26:59;98069.56;;;9.91;75.88
9187;BME280;7273;48.902;9.410;2023-12-29T00:29:25;98075.50;;;9.93;75.93
9187;BME280;7273;48.902;9.410;2023-12-29T00:31:50;98075.50;;;9.93;76.04
9187;BME280;7273;48.902;9.410;2023-12-29T00:34:16;98065.75;;;9.92;75.96
9187;BME280;7273;48.902;9.410;2023-12-29T00:36:41;98066.03;;;9.96;75.66
9187;BME280;7273;48.902;9.410;2023-12-29T00:39:06;98049.00;;;9.95;75.54
9187;BME280;7273;48.902;9.410;2023-12-29T00:41:32;98060.09;;;9.94;75.53
9187;BME280;7273;48.902;9.410;2023-12-29T00:43:57;98057.13;;;9.95;75.48
9187;BME280;7273;48.902;9.410;2023-12-29T00:46:23;98052.81;;;9.94;75.61
9187;BME280;7273;48.902;9.410;2023-12-29T00:48:48;98057.13;;;9.95;75.74
9187;BME280;7273;48.902;9.410;2023-12-29T00:51:13;98053.06;;;9.98;75.75
9187;BME280;7273;48.902;9.410;2023-12-29T00:53:39;98061.19;;;9.98;75.85
9187;BME280;7273;48.902;9.410;2023-12-29T00:56:10;98057.38;;;9.99;75.61
9187;BME280;7273;48.902;9.410;2023-12-29T00:58:36;98065.75;;;9.97;75.62
9187;BME280;7273;48.902;9.410;2023-12-29T01:01:01;98066.84;;;10.01;75.59
9187;BME280;7273;48.902;9.410;2023-12-29T01:03:27;98066.84;;;10.01;75.73
9187;BME280;7273;48.902;9.410;2023-12-29T01:05:52;98066.31;;;10.04;75.58
9187;BME280;7273;48.902;9.410;2023-12-29T01:08:17;98067.13;;;10.05;75.48
9187;BME280;7273;48.902;9.410;2023-12-29T01:10:43;98068.19;;;10.04;75.40
9187;BME280;7273;48.902;9.410;2023-12-29T01:13:08;98077.38;;;10.03;75.64
9187;BME280;7273;48.902;9.410;2023-12-29T01:15:33;98080.63;;;10.05;75.64
9187;BME280;7273;48.902;9.410;2023-12-29T01:17:59;98075.22;;;10.05;75.51
9187;BME280;7273;48.902;9.410;2023-12-29T01:20:24;98077.38;;;10.03;75.48
9187;BME280;7273;48.902;9.410;2023-12-29T01:22:50;98071.16;;;10.02;75.60
9187;BME280;7273;48.902;9.410;2023-12-29T01:25:15;98069.81;;;10.00;75.57
9187;BME280;7273;48.902;9.410;2023-12-29T01:27:41;98072.00;;;9.98;75.63
9187;BME280;7273;48.902;9.410;2023-12-29T01:30:06;98064.44;;;9.95;75.60
9187;BME280;7273;48.902;9.410;2023-12-29T01:32:32;98070.91;;;9.94;75.37
9187;BME280;7273;48.902;9.410;2023-12-29T01:34:57;98069.28;;;9.93;75.31
9187;BME280;7273;48.902;9.410;2023-12-29T01:37:23;98073.88;;;9.92;75.58
9187;BME280;7273;48.902;9.410;2023-12-29T01:39:48;98068.47;;;9.92;75.43
9187;BME280;7273;48.902;9.410;2023-12-29T01:42:13;98072.00;;;9.93;75.51
9187;BME280;7273;48.902;9.410;2023-12-29T01:44:39;98068.19;;;9.94;75.22
9187;BME280;7273;48.902;9.410;2023-12-29T01:47:11;98068.19;;;9.94;74.79
9187;BME280;7273;48.902;9.410;2023-12-29T01:49:38;98063.06;;;9.97;75.12
9187;BME280;7273;48.902;9.410;2023-12-29T01:52:04;98057.66;;;9.97;74.83
9187;BME280;7273;48.902;9.410;2023-12-29T01:54:33;98057.38;;;9.99;75.01
9187;BME280;7273;48.902;9.410;2023-12-29T01:57:00;98052.81;;;9.99;74.89
9187;BME280;7273;48.902;9.410;2023-12-29T01:59:28;98064.16;;;10.01;74.83
9187;BME280;7273;48.902;9.410;2023-12-29T02:01:54;98059.53;;;10.02;74.80
9187;BME280;7273;48.902;9.410;2023-12-29T02:04:27;98056.03;;;10.01;74.60
9187;BME280;7273;48.902;9.410;2023-12-29T02:06:53;98049.28;;;10.04;74.50
9187;BME280;7273;48.902;9.410;2023-12-29T02:09:19;98053.63;;;10.05;73.91
9187;BME280;7273;48.902;9.410;2023-12-29T02:11:48;98055.22;;;10.06;74.02
9187;BME280;7273;48.902;9.410;2023-12-29T02:14:17;98049.28;;;10.04;74.09
9187;BME280;7273;48.902;9.410;2023-12-29T02:16:56;98051.69;;;10.05;73.96
9187;BME280;7273;48.902;9.410;2023-12-29T02:19:45;98041.72;;;10.06;73.96
9187;BME280;7273;48.902;9.410;2023-12-29T02:22:11;98038.47;;;10.04;73.60
9187;BME280;7273;48.902;9.410;2023-12-29T02:24:37;98028.75;;;10.03;74.04
9187;BME280;7273;48.902;9.410;2023-12-29T02:27:11;98027.94;;;10.02;74.06
9187;BME280;7273;48.902;9.410;2023-12-29T02:29:40;98027.66;;;10.04;73.78
9187;BME280;7273;48.902;9.410;2023-12-29T02:32:11;98025.22;;;10.07;74.08
9187;BME280;7273;48.902;9.410;2023-12-29T02:34:40;98030.09;;;10.05;73.64
9187;BME280;7273;48.902;9.410;2023-12-29T02:37:08;98024.41;;;10.07;73.55
9187;BME280;7273;48.902;9.410;2023-12-29T02:39:34;98024.97;;;10.09;73.76
9187;BME280;7273;48.902;9.410;2023-12-29T02:41:59;98028.50;;;10.09;73.86
9187;BME280;7273;48.902;9.410;2023-12-29T02:44:25;98022.28;;;10.09;74.00
9187;BME280;7273;48.902;9.410;2023-12-29T02:46:50;98018.22;;;10.11;74.31
9187;BME280;7273;48.902;9.410;2023-12-29T02:49:16;98033.09;;;10.09;73.96
9187;BME280;7273;48.902;9.410;2023-12-29T02:51:41;98028.22;;;10.11;73.78
9187;BME280;7273;48.902;9.410;2023-12-29T02:54:06;98022.81;;;10.11;74.12
9187;BME280;7273;48.902;9.410;2023-12-29T02:56:33;98022.00;;;10.10;73.79
9187;BME280;7273;48.902;9.410;2023-12-29T02:58:59;98003.91;;;10.11;74.09
9187;BME280;7273;48.902;9.410;2023-12-29T03:01:24;98011.47;;;10.09;73.95
9187;BME280;7273;48.902;9.410;2023-12-29T03:03:49;98017.97;;;10.08;74.02
9187;BME280;7273;48.902;9.410;2023-12-29T03:06:15;98011.72;;;10.07;73.75
9187;BME280;7273;48.902;9.410;2023-12-29T03:08:41;98020.66;;;10.08;73.98
9187;BME280;7273;48.902;9.410;2023-12-29T03:11:06;98006.59;;;10.06;74.15
9187;BME280;7273;48.902;9.410;2023-12-29T03:13:31;98005.50;;;10.07;73.95
9187;BME280;7273;48.902;9.410;2023-12-29T03:15:57;97991.97;;;10.07;73.97
9187;BME280;7273;48.902;9.410;2023-12-29T03:18:22;97999.84;;;10.08;74.29
9187;BME280;7273;48.902;9.410;2023-12-29T03:20:48;98010.66;;;10.03;73.90
9187;BME280;7273;48.902;9.410;2023-12-29T03:23:13;98009.84;;;10.03;73.76
9187;BME280;7273;48.902;9.410;2023-12-29T03:25:38;98002.81;;;10.02;74.16
9187;BME280;7273;48.902;9.410;2023-12-29T03:28:04;97993.09;;;10.01;74.42
9187;BME280;7273;48.902;9.410;2023-12-29T03:30:29;97993.63;;;9.98;74.85
9187;BME280;7273;48.902;9.410;2023-12-29T03:32:55;97995.53;;;9.97;75.06
9187;BME280;7273;48.902;9.410;2023-12-29T03:35:20;97995.53;;;9.97;75.20
9187;BME280;7273;48.902;9.410;2023-12-29T03:37:45;97990.41;;;9.96;75.31
9187;BME280;7273;48.902;9.410;2023-12-29T03:40:11;97987.69;;;9.96;75.48
9187;BME280;7273;48.902;9.410;2023-12-29T03:42:37;98015.53;;;9.96;75.85
9187;BME280;7273;48.902;9.410;2023-12-29T03:45:03;97993.09;;;9.96;75.78
9187;BME280;7273;48.902;9.410;2023-12-29T03:47:29;97985.00;;;9.96;75.84
9187;BME280;7273;48.902;9.410;2023-12-29T03:49:55;97987.16;;;9.94;76.15
9187;BME280;7273;48.902;9.410;2023-12-29T03:52:21;97991.22;;;9.91;76.04
9187;BME280;7273;48.902;9.410;2023-12-29T03:54:46;97993.09;;;9.91;76.40
9187;BME280;7273;48.902;9.410;2023-12-29T03:57:11;97985.81;;;9.91;76.19
9187;BME280;7273;48.902;9.410;2023-12-29T03:59:37;97991.78;;;9.88;76.44
9187;BME280;7273;48.902;9.410;2023-12-29T04:02:05;97992.84;;;9.87;76.55
9187;BME280;7273;48.902;9.410;2023-12-29T04:04:31;98002.59;;;9.88;76.57
9187;BME280;7273;48.902;9.410;2023-12-29T04:06:56;97997.47;;;9.87;76.81
9187;BME280;7273;48.902;9.410;2023-12-29T04:09:22;97988.25;;;9.88;76.99
9187;BME280;7273;48.902;9.410;2023-12-29T04:11:47;97987.72;;;9.86;77.04
9187;BME280;7273;48.902;9.410;2023-12-29T04:14:13;97991.78;;;9.88;76.88
9187;BME280;7273;48.902;9.410;2023-12-29T04:16:39;97988.25;;;9.88;77.04
9187;BME280;7273;48.902;9.410;2023-12-29T04:19:04;97989.63;;;9.85;77.44
9187;BME280;7273;48.902;9.410;2023-12-29T04:21:30;97983.69;;;9.78;78.13
9187;BME280;7273;48.902;9.410;2023-12-29T04:23:55;97983.41;;;9.80;77.72
9187;BME280;7273;48.902;9.410;2023-12-29T04:26:20;97982.09;;;9.72;78.10
9187;BME280;7273;48.902;9.410;2023-12-29T04:28:46;97987.22;;;9.69;78.35
9187;BME280;7273;48.902;9.410;2023-12-29T04:31:11;97985.59;;;9.63;78.63
9187;BME280;7273;48.902;9.410;2023-12-29T04:33:36;97985.06;;;9.61;78.33
9187;BME280;7273;48.902;9.410;2023-12-29T04:36:02;97992.09;;;9.57;78.35
9187;BME280;7273;48.902;9.410;2023-12-29T04:38:27;97984.53;;;9.53;78.60
9187;BME280;7273;48.902;9.410;2023-12-29T04:40:53;97985.59;;;9.52;78.61
9187;BME280;7273;48.902;9.410;2023-12-29T04:43:18;97994.50;;;9.53;78.78
9187;BME280;7273;48.902;9.410;2023-12-29T04:45:43;97992.09;;;9.51;78.74
9187;BME280;7273;48.902;9.410;2023-12-29T04:48:09;97993.19;;;9.50;79.21
9187;BME280;7273;48.902;9.410;2023-12-29T04:50:34;98001.00;;;9.52;79.10
9187;BME280;7273;48.902;9.410;2023-12-29T04:53:00;97999.91;;;9.53;79.21
9187;BME280;7273;48.902;9.410;2023-12-29T04:55:25;97999.09;;;9.52;79.07
9187;BME280;7273;48.902;9.410;2023-12-29T04:57:50;97993.19;;;9.56;78.71
9187;BME280;7273;48.902;9.410;2023-12-29T05:00:16;97998.84;;;9.54;79.00
9187;BME280;7273;48.902;9.410;2023-12-29T05:02:41;98008.00;;;9.53;79.90
9187;BME280;7273;48.902;9.410;2023-12-29T05:05:07;98015.84;;;9.54;79.83
9187;BME280;7273;48.902;9.410;2023-12-29T05:07:33;98005.03;;;9.54;79.86
9187;BME280;7273;48.902;9.410;2023-12-29T05:09:58;98003.97;;;9.56;80.25
9187;BME280;7273;48.902;9.410;2023-12-29T05:12:23;98003.72;;;9.57;80.09
9187;BME280;7273;48.902;9.410;2023-12-29T05:14:49;98006.69;;;9.61;79.32
9187;BME280;7273;48.902;9.410;2023-12-29T05:17:14;97998.31;;;9.62;78.86
9187;BME280;7273;48.902;9.410;2023-12-29T05:19:40;97992.91;;;9.62;79.08
9187;BME280;7273;48.902;9.410;2023-12-29T05:22:05;97999.91;;;9.63;78.74
9187;BME280;7273;48.902;9.410;2023-12-29T05:24:31;97995.88;;;9.66;78.63
9187;BME280;7273;48.902;9.410;2023-12-29T05:26:56;98002.06;;;9.61;79.44
9187;BME280;7273;48.902;9.410;2023-12-29T05:29:21;98010.16;;;9.61;79.06
9187;BME280;7273;48.902;9.410;2023-12-29T05:31:47;98011.25;;;9.60;78.95
9187;BME280;7273;48.902;9.410;2023-12-29T05:34:12;98015.56;;;9.56;78.76
9187;BME280;7273;48.902;9.410;2023-12-29T05:36:38;98007.75;;;9.49;79.31
9187;BME280;7273;48.902;9.410;2023-12-29T05:39:04;98005.03;;;9.39;80.38
9187;BME280;7273;48.902;9.410;2023-12-29T05:41:29;97992.63;;;9.38;80.09
9187;BME280;7273;48.902;9.410;2023-12-29T05:43:54;97990.47;;;9.35;79.97
9187;BME280;7273;48.902;9.410;2023-12-29T05:46:22;98002.63;;;9.28;80.99
9187;BME280;7273;48.902;9.410;2023-12-29T05:48:47;98012.88;;;9.26;80.94
9187;BME280;7273;48.902;9.410;2023-12-29T05:51:13;98001.28;;;9.25;80.92
9187;BME280;7273;48.902;9.410;2023-12-29T05:53:42;98004.78;;;9.21;80.52
9187;BME280;7273;48.902;9.410;2023-12-29T05:56:12;98004.22;;;9.14;81.80
9187;BME280;7273;48.902;9.410;2023-12-29T05:58:37;98005.31;;;9.13;81.83
9187;BME280;7273;48.902;9.410;2023-12-29T06:01:03;98000.47;;;9.10;81.50
9187;BME280;7273;48.902;9.410;2023-12-29T06:03:28;98007.19;;;9.07;81.83
9187;BME280;7273;48.902;9.410;2023-12-29T06:05:54;98005.03;;;9.04;82.23
9187;BME280;7273;48.902;9.410;2023-12-29T06:08:19;97997.75;;;9.05;80.83
9187;BME280;7273;48.902;9.410;2023-12-29T06:10:45;98009.34;;;9.05;80.30
9187;BME280;7273;48.902;9.410;2023-12-29T06:13:10;98008.28;;;9.06;79.92
9187;BME280;7273;48.902;9.410;2023-12-29T06:15:36;98007.47;;;9.06;80.33
9187;BME280;7273;48.902;9.410;2023-12-29T06:18:02;98013.94;;;9.05;80.40
9187;BME280;7273;48.902;9.410;2023-12-29T06:20:27;98016.09;;;8.98;81.13
9187;BME280;7273;48.902;9.410;2023-12-29T06:22:53;98013.94;;;8.95;81.43
9187;BME280;7273;48.902;9.410;2023-12-29T06:25:18;98009.84;;;8.92;81.07
9187;BME280;7273;48.902;9.410;2023-12-29T06:27:44;98014.97;;;8.89;81.58
9187;BME280;7273;48.902;9.410;2023-12-29T06:30:09;98010.66;;;8.88;81.07
9187;BME280;7273;48.902;9.410;2023-12-29T06:32:38;98007.16;;;8.87;81.22
9187;BME280;7273;48.902;9.410;2023-12-29T06:35:05;98005.25;;;8.83;81.32
9187;BME280;7273;48.902;9.410;2023-12-29T06:37:31;98003.38;;;8.78;81.53
9187;BME280;7273;48.902;9.410;2023-12-29T06:39:57;98006.34;;;8.77;81.01
9187;BME280;7273;48.902;9.410;2023-12-29T06:42:22;98002.53;;;8.73;81.13
9187;BME280;7273;48.902;9.410;2023-12-29T06:44:48;98005.22;;;8.73;81.40
9187;BME280;7273;48.902;9.410;2023-12-29T06:47:13;98004.16;;;8.69;81.20
9187;BME280;7273;48.902;9.410;2023-12-29T06:49:39;97999.56;;;8.69;80.87
9187;BME280;7273;48.902;9.410;2023-12-29T06:52:05;97997.66;;;8.65;81.17
9187;BME280;7273;48.902;9.410;2023-12-29T06:54:31;97996.06;;;8.64;80.75
9187;BME280;7273;48.902;9.410;2023-12-29T06:56:56;97982.00;;;8.57;80.80
9187;BME280;7273;48.902;9.410;2023-12-29T06:59:22;97986.59;;;8.56;80.87
9187;BME280;7273;48.902;9.410;2023-12-29T07:01:48;97986.59;;;8.56;80.71
9187;BME280;7273;48.902;9.410;2023-12-29T07:04:13;97994.66;;;8.56;81.11
9187;BME280;7273;48.902;9.410;2023-12-29T07:06:39;97989.81;;;8.53;81.72
9187;BME280;7273;48.902;9.410;2023-12-29T07:09:05;97997.91;;;8.53;81.84
9187;BME280;7273;48.902;9.410;2023-12-29T07:11:30;97998.16;;;8.52;83.46
9187;BME280;7273;48.902;9.410;2023-12-29T07:13:56;97997.91;;;8.53;83.18
9187;BME280;7273;48.902;9.410;2023-12-29T07:16:21;98003.31;;;8.58;83.76
9187;BME280;7273;48.902;9.410;2023-12-29T07:18:47;97998.19;;;8.62;85.05
9187;BME280;7273;48.902;9.410;2023-12-29T07:21:14;97996.34;;;8.67;85.43
9187;BME280;7273;48.902;9.410;2023-12-29T07:23:40;97991.19;;;8.71;84.30
9187;BME280;7273;48.902;9.410;2023-12-29T07:26:05;97989.34;;;8.76;87.10
9187;BME280;7273;48.902;9.410;2023-12-29T07:28:31;97987.19;;;8.78;86.75
9187;BME280;7273;48.902;9.410;2023-12-29T07:30:57;97985.56;;;8.82;84.79
9187;BME280;7273;48.902;9.410;2023-12-29T07:33:22;97984.53;;;8.88;84.50
9187;BME280;7273;48.902;9.410;2023-12-29T07:35:49;97993.41;;;8.94;85.21
9187;BME280;7273;48.902;9.410;2023-12-29T07:38:14;97985.59;;;8.97;86.05
9187;BME280;7273;48.902;9.410;2023-12-29T07:40:40;97974.81;;;9.02;86.79
9187;BME280;7273;48.902;9.410;2023-12-29T07:43:05;97973.22;;;9.06;85.91
9187;BME280;7273;48.902;9.410;2023-12-29T07:45:31;97971.59;;;9.10;84.26
9187;BME280;7273;48.902;9.410;2023-12-29T07:47:56;97973.75;;;9.13;85.39
9187;BME280;7273;48.902;9.410;2023-12-29T07:50:22;97978.88;;;9.20;86.26
9187;BME280;7273;48.902;9.410;2023-12-29T07:52:47;97966.47;;;9.24;84.66
9187;BME280;7273;48.902;9.410;2023-12-29T07:55:13;97978.34;;;9.28;85.41
9187;BME280;7273;48.902;9.410;2023-12-29T07:57:41;97988.06;;;9.34;85.98
9187;BME280;7273;48.902;9.410;2023-12-29T08:00:07;97981.03;;;9.38;85.46
9187;BME280;7273;48.902;9.410;2023-12-29T08:02:33;97984.81;;;9.42;84.85
9187;BME280;7273;48.902;9.410;2023-12-29T08:04:58;97988.34;;;9.47;83.91
9187;BME280;7273;48.902;9.410;2023-12-29T08:07:24;97987.50;;;9.52;83.60
9187;BME280;7273;48.902;9.410;2023-12-29T08:09:49;97984.81;;;9.57;83.91
9187;BME280;7273;48.902;9.410;2023-12-29T08:12:14;97988.84;;;9.60;84.31
9187;BME280;7273;48.902;9.410;2023-12-29T08:14:40;97994.50;;;9.63;84.35
9187;BME280;7273;48.902;9.410;2023-12-29T08:17:05;97989.66;;;9.65;84.31
9187;BME280;7273;48.902;9.410;2023-12-29T08:19:32;97992.63;;;9.69;84.39
9187;BME280;7273;48.902;9.410;2023-12-29T08:21:57;97990.72;;;9.69;85.33
9187;BME280;7273;48.902;9.410;2023-12-29T08:24:23;97994.50;;;9.73;85.31
9187;BME280;7273;48.902;9.410;2023-12-29T08:26:49;98006.38;;;9.77;84.44
9187;BME280;7273;48.902;9.410;2023-12-29T08:29:15;98002.59;;;9.78;85.42
9187;BME280;7273;48.902;9.410;2023-12-29T08:31:42;97997.47;;;9.82;83.90
9187;BME280;7273;48.902;9.410;2023-12-29T08:34:08;97999.88;;;9.83;84.38
9187;BME280;7273;48.902;9.410;2023-12-29T08:36:34;98002.31;;;9.85;84.01
9187;BME280;7273;48.902;9.410;2023-12-29T08:38:59;98000.94;;;9.87;83.66
9187;BME280;7273;48.902;9.410;2023-12-29T08:41:25;98012.03;;;9.91;84.08
9187;BME280;7273;48.902;9.410;2023-12-29T08:43:50;98012.56;;;9.93;83.53
9187;BME280;7273;48.902;9.410;2023-12-29T08:46:15;98010.94;;;9.97;83.10
9187;BME280;7273;48.902;9.410;2023-12-29T08:48:41;98012.56;;;9.98;83.88
9187;BME280;7273;48.902;9.410;2023-12-29T08:51:06;98016.59;;;10.00;83.92
9187;BME280;7273;48.902;9.410;2023-12-29T08:53:32;98017.66;;;10.04;84.04
9187;BME280;7273;48.902;9.410;2023-12-29T08:56:00;98021.69;;;10.07;83.92
9187;BME280;7273;48.902;9.410;2023-12-29T08:58:26;98009.00;;;10.07;83.83
9187;BME280;7273;48.902;9.410;2023-12-29T09:00:51;98011.72;;;10.12;83.10
9187;BME280;7273;48.902;9.410;2023-12-29T09:03:17;98014.44;;;10.12;83.09
9187;BME280;7273;48.902;9.410;2023-12-29T09:05:42;98011.19;;;10.15;83.03
9187;BME280;7273;48.902;9.410;2023-12-29T09:08:07;98017.94;;;10.18;82.67
9187;BME280;7273;48.902;9.410;2023-12-29T09:10:33;98017.94;;;10.18;82.56
9187;BME280;7273;48.902;9.410;2023-12-29T09:12:58;98014.97;;;10.19;83.10
9187;BME280;7273;48.902;9.410;2023-12-29T09:15:24;98010.34;;;10.20;83.49
9187;BME280;7273;48.902;9.410;2023-12-29T09:17:49;98015.75;;;10.20;83.30
9187;BME280;7273;48.902;9.410;2023-12-29T09:20:16;98017.66;;;10.19;82.82
9187;BME280;7273;48.902;9.410;2023-12-29T09:22:41;98014.69;;;10.21;83.42
9187;BME280;7273;48.902;9.410;2023-12-29T09:25:07;98018.47;;;10.20;83.49
9187;BME280;7273;48.902;9.410;2023-12-29T09:27:32;98019.28;;;10.20;83.10
9187;BME280;7273;48.902;9.410;2023-12-29T09:29:58;98014.69;;;10.21;83.02
9187;BME280;7273;48.902;9.410;2023-12-29T09:32:23;98029.53;;;10.23;82.71
9187;BME280;7273;48.902;9.410;2023-12-29T09:34:49;98029.78;;;10.27;82.09
9187;BME280;7273;48.902;9.410;2023-12-29T09:37:14;98027.38;;;10.25;82.43
9187;BME280;7273;48.902;9.410;2023-12-29T09:39:40;98028.72;;;10.28;81.98
9187;BME280;7273;48.902;9.410;2023-12-29T09:42:07;98034.91;;;10.28;81.75
9187;BME280;7273;48.902;9.410;2023-12-29T09:44:35;98034.91;;;10.28;82.00
9187;BME280;7273;48.902;9.410;2023-12-29T09:47:02;98038.16;;;10.30;82.59
9187;BME280;7273;48.902;9.410;2023-12-29T09:49:38;98041.69;;;10.36;81.96
9187;BME280;7273;48.902;9.410;2023-12-29T09:52:11;98048.94;;;10.40;81.86
9187;BME280;7273;48.902;9.410;2023-12-29T09:54:38;98046.78;;;10.42;81.81
9187;BME280;7273;48.902;9.410;2023-12-29T09:57:04;98047.56;;;10.48;81.16
9187;BME280;7273;48.902;9.410;2023-12-29T09:59:32;98048.09;;;10.50;81.27
9187;BME280;7273;48.902;9.410;2023-12-29T10:02:02;98041.59;;;10.51;81.59
9187;BME280;7273;48.902;9.410;2023-12-29T10:04:28;98049.19;;;10.54;81.47
9187;BME280;7273;48.902;9.410;2023-12-29T10:06:55;98047.25;;;10.54;81.64
9187;BME280;7273;48.902;9.410;2023-12-29T10:09:23;98045.38;;;10.55;81.62
9187;BME280;7273;48.902;9.410;2023-12-29T10:11:50;98030.47;;;10.57;81.23
9187;BME280;7273;48.902;9.410;2023-12-29T10:14:24;98027.00;;;10.57;81.50
9187;BME280;7273;48.902;9.410;2023-12-29T10:17:03;98036.72;;;10.58;81.12
9187;BME280;7273;48.902;9.410;2023-12-29T10:19:39;98037.53;;;10.58;81.00
9187;BME280;7273;48.902;9.410;2023-12-29T10:22:26;98037.00;;;10.56;81.80
9187;BME280;7273;48.902;9.410;2023-12-29T10:24:56;98031.31;;;10.53;82.53
9187;BME280;7273;48.902;9.410;2023-12-29T10:27:21;98027.78;;;10.57;81.99
9187;BME280;7273;48.902;9.410;2023-12-29T10:29:48;98021.00;;;10.65;82.21
9187;BME280;7273;48.902;9.410;2023-12-29T10:32:13;98019.03;;;10.75;81.81
9187;BME280;7273;48.902;9.410;2023-12-29T10:34:39;98017.09;;;10.86;81.26
9187;BME280;7273;48.902;9.410;2023-12-29T10:37:04;98011.91;;;10.95;81.40
9187;BME280;7273;48.902;9.410;2023-12-29T10:39:37;98010.78;;;11.01;80.82
9187;BME280;7273;48.902;9.410;2023-12-29T10:42:07;98001.25;;;11.08;80.54
9187;BME280;7273;48.902;9.410;2023-12-29T10:44:33;98006.09;;;11.16;80.30
9187;BME280;7273;48.902;9.410;2023-12-29T10:47:10;98000.13;;;11.19;79.90
9187;BME280;7273;48.902;9.410;2023-12-29T10:49:36;97995.47;;;11.25;79.84
9187;BME280;7273;48.902;9.410;2023-12-29T10:54:38;97987.84;;;11.32;79.05
9187;BME280;7273;48.902;9.410;2023-12-29T10:57:04;97982.94;;;11.34;78.85
9187;BME280;7273;48.902;9.410;2023-12-29T10:59:29;97978.88;;;11.31;78.52
9187;BME280;7273;48.902;9.410;2023-12-29T11:01:55;97979.97;;;11.35;78.73
9187;BME280;7273;48.902;9.410;2023-12-29T11:04:23;97977.25;;;11.35;78.44
9187;BME280;7273;48.902;9.410;2023-12-29T11:06:49;97974.78;;;11.39;78.01
9187;BME280;7273;48.902;9.410;2023-12-29T11:09:32;97968.81;;;11.42;78.14
9187;BME280;7273;48.902;9.410;2023-12-29T11:12:00;97970.41;;;11.43;77.76
9187;BME280;7273;48.902;9.410;2023-12-29T11:14:25;97964.16;;;11.47;77.47
9187;BME280;7273;48.902;9.410;2023-12-29T11:16:52;97967.91;;;11.51;77.51
9187;BME280;7273;48.902;9.410;2023-12-29T11:19:20;97958.66;;;11.52;77.60
9187;BME280;7273;48.902;9.410;2023-12-29T11:21:47;97957.59;;;11.53;76.64
9187;BME280;7273;48.902;9.410;2023-12-29T11:24:13;97955.13;;;11.57;75.99
9187;BME280;7273;48.902;9.410;2023-12-29T11:26:39;97955.63;;;11.59;76.42
9187;BME280;7273;48.902;9.410;2023-12-29T11:29:07;97955.09;;;11.62;76.57
9187;BME280;7273;48.902;9.410;2023-12-29T11:31:33;97954.56;;;11.60;76.11
9187;BME280;7273;48.902;9.410;2023-12-29T11:34:20;97952.38;;;11.62;75.38
9187;BME280;7273;48.902;9.410;2023-12-29T11:36:50;97948.84;;;11.61;74.37
9187;BME280;7273;48.902;9.410;2023-12-29T11:41:56;97955.28;;;11.70;74.26
9187;BME280;7273;48.902;9.410;2023-12-29T11:44:25;97948.50;;;11.73;73.87
9187;BME280;7273;48.902;9.410;2023-12-29T11:46:52;97944.09;;;11.77;74.18
9187;BME280;7273;48.902;9.410;2023-12-29T11:49:17;97949.75;;;11.80;73.75
9187;BME280;7273;48.902;9.410;2023-12-29T11:51:45;97934.56;;;11.84;73.90
9187;BME280;7273;48.902;9.410;2023-12-29T11:54:22;97925.84;;;11.87;73.35
9187;BME280;7273;48.902;9.410;2023-12-29T11:56:47;97933.63;;;11.94;73.88
9187;BME280;7273;48.902;9.410;2023-12-29T11:59:23;97920.03;;;11.99;73.92
9187;BME280;7273;48.902;9.410;2023-12-29T12:01:54;97916.44;;;12.03;74.58
9187;BME280;7273;48.902;9.410;2023-12-29T12:04:42;97920.19;;;12.07;73.88
9187;BME280;7273;48.902;9.410;2023-12-29T12:12:56;97909.72;;;12.01;73.14
9187;BME280;7273;48.902;9.410;2023-12-29T12:17:59;97904.78;;;12.03;72.95
9187;BME280;7273;48.902;9.410;2023-12-29T12:20:25;97909.06;;;12.09;74.00
9187;BME280;7273;48.902;9.410;2023-12-29T12:23:02;97898.22;;;12.09;72.79
9187;BME280;7273;48.902;9.410;2023-12-29T12:25:30;97905.13;;;12.20;73.61
9187;BME280;7273;48.902;9.410;2023-12-29T12:27:58;97894.50;;;12.24;73.12
9187;BME280;7273;48.902;9.410;2023-12-29T12:30:24;97900.94;;;12.28;72.47
9187;BME280;7273;48.902;9.410;2023-12-29T12:33:03;97898.16;;;12.33;71.43
9187;BME280;7273;48.902;9.410;2023-12-29T12:35:30;97890.78;;;12.38;72.65
9187;BME280;7273;48.902;9.410;2023-12-29T12:38:14;97889.59;;;12.44;71.37
9187;BME280;7273;48.902;9.410;2023-12-29T12:40:50;97896.66;;;12.45;71.67
9187;BME280;7273;48.902;9.410;2023-12-29T12:43:16;97886.03;;;12.49;71.76
9187;BME280;7273;48.902;9.410;2023-12-29T12:46:02;97893.94;;;12.45;68.49
9187;BME280;7273;48.902;9.410;2023-12-29T12:48:29;97892.31;;;12.44;70.03
9187;BME280;7273;48.902;9.410;2023-12-29T12:50:58;97890.72;;;12.43;70.67
9187;BME280;7273;48.902;9.410;2023-12-29T12:53:25;97886.97;;;12.39;69.63
9187;BME280;7273;48.902;9.410;2023-12-29T12:55:51;97884.78;;;12.41;71.29
9187;BME280;7273;48.902;9.410;2023-12-29T12:58:18;97892.69;;;12.38;71.02
9187;BME280;7273;48.902;9.410;2023-12-29T13:00:45;97895.16;;;12.34;70.63
9187;BME280;7273;48.902;9.410;2023-12-29T13:03:10;97880.38;;;12.27;69.99
9187;BME280;7273;48.902;9.410;2023-12-29T13:05:37;97893.94;;;12.27;70.68
9187;BME280;7273;48.902;9.410;2023-12-29T13:08:03;97895.31;;;12.24;71.24
9187;BME280;7273;48.902;9.410;2023-12-29T13:10:30;97896.19;;;12.19;69.97
9187;BME280;7273;48.902;9.410;2023-12-29T13:12:55;97900.28;;;12.17;70.25
9187;BME280;7273;48.902;9.410;2023-12-29T13:15:22;97902.47;;;12.15;70.51
9187;BME280;7273;48.902;9.410;2023-12-29T13:17:53;97912.78;;;12.13;68.32
9187;BME280;7273;48.902;9.410;2023-12-29T13:20:19;97904.38;;;12.14;71.21
9187;BME280;7273;48.902;9.410;2023-12-29T13:22:49;97906.34;;;12.09;70.21
9187;BME280;7273;48.902;9.410;2023-12-29T13:25:24;97915.00;;;12.11;71.14
9187;BME280;7273;48.902;9.410;2023-12-29T13:27:50;97898.75;;;12.11;71.82
9187;BME280;7273;48.902;9.410;2023-12-29T13:30:18;97903.41;;;12.05;70.57
9187;BME280;7273;48.902;9.410;2023-12-29T13:32:45;97899.88;;;12.05;70.92
9187;BME280;7273;48.902;9.410;2023-12-29T13:35:22;97899.34;;;12.03;71.18
9187;BME280;7273;48.902;9.410;2023-12-29T13:40:24;97900.69;;;12.05;70.80